createdAt,value
2022-11-10T00:02:11.113Z,29.65
2022-11-10T00:04:37.773Z,40.72
2022-11-10T00:07:13.373Z,38.85
2022-11-10T00:09:40.107Z,40.72
2022-11-10T00:12:06.733Z,34.70
2022-11-10T00:14:53.565Z,36.55
2022-11-10T00:17:24.526Z,38.47
2022-11-10T00:19:54.268Z,41.10
2022-11-10T00:22:23.989Z,42.10
2022-11-10T00:24:52.584Z,38.65
2022-11-10T00:27:21.829Z,44.83
2022-11-10T00:29:48.452Z,38.67
2022-11-10T00:32:15.068Z,36.15
2022-11-10T00:34:41.759Z,47.75
2022-11-10T00:37:08.446Z,43.40
2022-11-10T00:39:35.181Z,40.70
2022-11-10T00:42:01.830Z,45.72
2022-11-10T00:44:28.512Z,41.63
2022-11-10T00:46:55.101Z,42.20
2022-11-10T00:49:22.168Z,47.35
2022-11-10T00:51:50.162Z,43.38
2022-11-10T00:54:16.805Z,46.28
2022-11-10T00:56:43.555Z,42.47
2022-11-10T00:59:10.190Z,45.95
2022-11-10T01:01:37.381Z,46.33
2022-11-10T01:04:04.599Z,45.75
2022-11-10T01:06:31.283Z,43.63
2022-11-10T01:08:59.625Z,41.38
2022-11-10T01:11:28.138Z,47.75
2022-11-10T01:13:56.410Z,40.60
2022-11-10T01:16:28.572Z,46.97
2022-11-10T01:18:58.316Z,41.33
2022-11-10T01:21:26.066Z,45.85
2022-11-10T01:23:53.020Z,46.38
2022-11-10T01:26:19.900Z,48.75
2022-11-10T01:28:46.857Z,44.50
2022-11-10T01:31:16.629Z,42.15
2022-11-10T01:33:43.577Z,47.50
2022-11-10T01:36:11.961Z,44.17
2022-11-10T01:38:41.725Z,45.13
2022-11-10T01:41:10.991Z,45.30
2022-11-10T01:43:38.108Z,43.83
2022-11-10T01:46:07.098Z,40.08
2022-11-10T01:48:55.840Z,46.90
2022-11-10T01:51:34.191Z,43.38
2022-11-10T01:54:14.371Z,40.80
2022-11-10T01:56:47.099Z,37.00
2022-11-10T01:59:18.165Z,40.90
2022-11-10T02:01:48.705Z,43.80
2022-11-10T02:04:17.783Z,38.05
2022-11-10T02:06:47.361Z,39.40
2022-11-10T02:09:14.082Z,39.42
2022-11-10T02:11:42.651Z,40.63
2022-11-10T02:14:09.979Z,44.13
2022-11-10T02:16:37.217Z,45.60
2022-11-10T02:19:23.904Z,40.17
2022-11-10T02:24:18.044Z,42.10
2022-11-10T02:26:53.502Z,47.63
2022-11-10T02:29:20.514Z,36.63
2022-11-10T02:31:47.207Z,43.55
2022-11-10T02:34:13.907Z,41.70
2022-11-10T02:36:40.552Z,39.20
2022-11-10T02:39:07.180Z,46.40
2022-11-10T02:41:33.769Z,37.90
2022-11-10T02:44:00.858Z,42.25
2022-11-10T02:46:27.478Z,44.35
2022-11-10T02:48:54.096Z,47.22
2022-11-10T02:51:20.681Z,47.95
2022-11-10T02:53:47.298Z,40.63
2022-11-10T02:56:13.915Z,38.08
2022-11-10T02:58:41.661Z,45.67
2022-11-10T03:01:08.453Z,41.75
2022-11-10T03:03:35.504Z,47.47
2022-11-10T03:06:02.540Z,43.10
2022-11-10T03:08:29.245Z,40.60
2022-11-10T03:10:57.526Z,45.00
2022-11-10T03:13:32.076Z,38.70
2022-11-10T03:16:07.017Z,46.45
2022-11-10T03:18:33.666Z,43.47
2022-11-10T03:21:00.364Z,48.40
2022-11-10T03:23:27.217Z,43.65
2022-11-10T03:25:54.084Z,43.42
2022-11-10T03:28:23.105Z,41.15
2022-11-10T03:30:50.575Z,41.58
2022-11-10T03:33:19.125Z,44.92
2022-11-10T03:35:46.284Z,49.65
2022-11-10T03:38:13.166Z,43.80
2022-11-10T03:41:17.754Z,42.05
2022-11-10T03:43:35.562Z,48.28
2022-11-10T03:46:02.226Z,41.03
2022-11-10T03:48:29.994Z,47.13
2022-11-10T03:50:56.567Z,41.53
2022-11-10T03:53:23.597Z,43.42
2022-11-10T03:55:50.660Z,45.22
2022-11-10T03:58:17.250Z,45.78
2022-11-10T04:00:43.887Z,47.00
2022-11-10T04:03:10.512Z,35.42
2022-11-10T04:05:55.537Z,41.00
2022-11-10T04:08:40.831Z,39.28
2022-11-10T04:11:07.516Z,39.90
2022-11-10T04:13:52.672Z,35.63
2022-11-10T04:16:20.128Z,37.78
2022-11-10T04:18:46.759Z,31.58
2022-11-10T04:21:13.419Z,38.90
2022-11-10T04:23:39.992Z,39.83
2022-11-10T04:26:32.089Z,40.75
2022-11-10T04:29:04.396Z,40.10
2022-11-10T04:31:33.521Z,37.70
2022-11-10T04:34:00.147Z,40.00
2022-11-10T04:36:32.286Z,38.88
2022-11-10T04:38:59.409Z,41.42
2022-11-10T04:41:27.962Z,34.47
2022-11-10T04:43:54.637Z,33.00
2022-11-10T04:46:28.356Z,37.50
2022-11-10T04:48:55.567Z,35.38
2022-11-10T04:51:27.236Z,35.13
2022-11-10T04:53:54.409Z,34.33
2022-11-10T04:56:23.068Z,35.03
2022-11-10T04:58:50.453Z,34.47
2022-11-10T05:01:19.798Z,29.70
2022-11-10T05:03:47.697Z,33.35
2022-11-10T05:06:15.258Z,31.30
2022-11-10T05:08:43.416Z,31.38
2022-11-10T05:11:11.289Z,37.10
2022-11-10T05:13:38.512Z,33.75
2022-11-10T05:16:05.983Z,33.85
2022-11-10T05:18:32.596Z,32.92
2022-11-10T05:20:59.211Z,33.60
2022-11-10T05:23:38.086Z,33.42
2022-11-10T05:26:16.386Z,29.25
2022-11-10T05:28:45.621Z,25.80
2022-11-10T05:31:15.101Z,31.10
2022-11-10T05:33:41.712Z,31.13
2022-11-10T05:36:11.281Z,27.65
2022-11-10T05:38:43.228Z,30.98
2022-11-10T05:41:11.229Z,28.33
2022-11-10T05:43:37.851Z,27.83
2022-11-10T05:46:04.477Z,27.52
2022-11-10T05:48:31.326Z,29.83
2022-11-10T05:50:57.886Z,26.15
2022-11-10T05:53:25.726Z,30.30
2022-11-10T05:55:54.161Z,25.65
2022-11-10T05:58:21.084Z,22.48
2022-11-10T06:00:47.788Z,24.30
2022-11-10T06:03:17.466Z,25.00
2022-11-10T06:05:44.603Z,23.33
2022-11-10T06:08:11.528Z,25.23
2022-11-10T06:10:38.955Z,24.38
2022-11-10T06:13:05.941Z,22.30
2022-11-10T06:15:33.032Z,21.83
2022-11-10T06:17:59.895Z,19.52
2022-11-10T06:20:28.102Z,21.08
2022-11-10T06:23:05.982Z,22.08
2022-11-10T06:25:35.177Z,21.58
2022-11-10T06:28:02.857Z,21.38
2022-11-10T06:30:31.027Z,20.48
2022-11-10T06:32:57.653Z,19.10
2022-11-10T06:35:25.714Z,17.40
2022-11-10T06:38:02.844Z,16.20
2022-11-10T06:40:30.799Z,18.40
2022-11-10T06:42:58.079Z,20.05
2022-11-10T06:45:25.375Z,15.80
2022-11-10T06:48:01.154Z,15.43
2022-11-10T06:50:27.728Z,15.82
2022-11-10T06:52:55.464Z,17.73
2022-11-10T06:55:22.285Z,17.90
2022-11-10T06:57:48.980Z,15.90
2022-11-10T07:00:16.305Z,19.08
2022-11-10T07:02:42.897Z,17.13
2022-11-10T07:05:10.928Z,20.27
2022-11-10T07:07:37.939Z,17.77
2022-11-10T07:10:07.589Z,17.13
2022-11-10T07:12:35.867Z,15.35
2022-11-10T07:15:02.627Z,17.35
2022-11-10T07:17:29.213Z,19.48
2022-11-10T07:19:55.827Z,21.67
2022-11-10T07:22:22.561Z,18.75
2022-11-10T07:24:49.430Z,18.92
2022-11-10T07:27:16.025Z,17.30
2022-11-10T07:29:42.712Z,19.38
2022-11-10T07:32:09.475Z,17.27
2022-11-10T07:34:37.302Z,16.30
2022-11-10T07:37:03.884Z,19.75
2022-11-10T07:39:31.208Z,17.42
2022-11-10T07:41:58.622Z,15.43
2022-11-10T07:44:26.755Z,17.13
2022-11-10T07:46:53.348Z,13.50
2022-11-10T07:49:20.029Z,13.30
2022-11-10T07:51:46.663Z,12.70
2022-11-10T07:54:13.277Z,12.25
2022-11-10T07:56:40.032Z,12.85
2022-11-10T07:59:06.720Z,15.52
2022-11-10T08:01:34.205Z,18.15
2022-11-10T08:04:00.872Z,16.85
2022-11-10T08:06:29.177Z,17.33
2022-11-10T08:08:56.904Z,15.32
2022-11-10T08:11:23.504Z,17.30
2022-11-10T08:13:50.584Z,14.10
2022-11-10T08:16:17.234Z,14.70
2022-11-10T08:18:44.167Z,15.75
2022-11-10T08:21:10.762Z,20.00
2022-11-10T08:23:37.394Z,16.55
2022-11-10T08:26:03.976Z,13.77
2022-11-10T08:28:30.614Z,10.35
2022-11-10T08:30:59.368Z,11.00
2022-11-10T08:33:29.527Z,11.30
2022-11-10T08:35:56.089Z,8.98
2022-11-10T08:38:24.469Z,11.48
2022-11-10T08:40:51.372Z,17.65
2022-11-10T08:43:18.577Z,11.15
2022-11-10T08:45:45.800Z,9.65
2022-11-10T08:48:18.019Z,9.25
2022-11-10T08:50:47.216Z,8.00
2022-11-10T08:53:16.135Z,10.07
2022-11-10T08:55:43.899Z,9.48
2022-11-10T08:58:14.349Z,11.68
2022-11-10T09:00:41.709Z,12.13
2022-11-10T09:03:18.793Z,9.27
2022-11-10T09:05:46.675Z,8.00
2022-11-10T09:08:13.639Z,8.90
2022-11-10T09:10:45.965Z,7.80
2022-11-10T09:13:15.761Z,7.47
2022-11-10T09:15:43.495Z,9.25
2022-11-10T09:18:12.394Z,7.75
2022-11-10T09:20:40.489Z,7.88
2022-11-10T09:23:16.233Z,6.72
2022-11-10T09:28:17.316Z,8.50
2022-11-10T09:30:46.849Z,7.45
2022-11-10T09:33:13.462Z,6.95
2022-11-10T09:35:41.804Z,7.28
2022-11-10T09:38:09.213Z,8.13
2022-11-10T09:40:57.697Z,8.65
2022-11-10T09:43:34.963Z,7.25
2022-11-10T09:46:09.955Z,7.65
2022-11-10T09:48:43.877Z,11.77
2022-11-10T09:51:21.089Z,7.38
2022-11-10T09:53:51.964Z,6.82
2022-11-10T09:56:26.242Z,7.95
2022-11-10T09:58:52.949Z,7.03
2022-11-10T10:01:30.878Z,7.32
2022-11-10T10:04:29.964Z,7.50
2022-11-10T10:07:20.765Z,7.03
2022-11-10T10:10:00.358Z,6.80
2022-11-10T10:12:54.114Z,7.57
2022-11-10T10:15:35.104Z,6.40
2022-11-10T10:18:18.850Z,8.07
2022-11-10T10:21:04.064Z,5.03
2022-11-10T10:24:07.752Z,5.82
2022-11-10T10:26:32.622Z,9.00
2022-11-10T10:29:14.577Z,8.05
2022-11-10T10:31:43.963Z,5.95
2022-11-10T10:34:16.812Z,9.18
2022-11-10T10:36:44.767Z,8.13
2022-11-10T10:39:45.130Z,9.70
2022-11-10T10:42:32.438Z,7.40
2022-11-10T10:45:25.815Z,5.72
2022-11-10T10:47:54.629Z,5.68
2022-11-10T10:50:35.921Z,8.52
2022-11-10T10:53:12.207Z,7.65
2022-11-10T10:55:46.581Z,7.47
2022-11-10T10:58:27.377Z,6.85
2022-11-10T11:01:16.117Z,9.07
2022-11-10T11:03:45.907Z,6.65
2022-11-10T11:06:15.780Z,8.48
2022-11-10T11:09:00.540Z,7.28
2022-11-10T11:11:35.847Z,7.85
2022-11-10T11:14:16.968Z,8.00
2022-11-10T11:17:12.127Z,9.95
2022-11-10T11:19:40.171Z,7.50
2022-11-10T11:22:38.104Z,5.40
2022-11-10T11:25:32.300Z,8.25
2022-11-10T11:28:03.833Z,7.47
2022-11-10T11:30:50.726Z,7.90
2022-11-10T11:33:24.463Z,7.40
2022-11-10T11:36:05.269Z,7.88
2022-11-10T11:38:51.138Z,9.63
2022-11-10T11:41:29.743Z,6.63
2022-11-10T11:44:15.466Z,6.05
2022-11-10T11:49:45.189Z,7.97
2022-11-10T11:52:17.900Z,10.67
2022-11-10T11:54:59.398Z,5.85
2022-11-10T11:58:10.500Z,6.13
2022-11-10T12:00:54.135Z,6.35
2022-11-10T12:03:39.859Z,8.45
2022-11-10T12:06:25.149Z,9.63
2022-11-10T12:09:18.648Z,5.95
2022-11-10T12:12:10.094Z,6.80
2022-11-10T12:14:56.509Z,6.40
2022-11-10T12:20:35.175Z,6.80
2022-11-10T12:23:48.996Z,7.70
2022-11-10T12:26:26.959Z,5.65
2022-11-10T12:29:03.031Z,6.65
2022-11-10T12:31:34.365Z,7.00
2022-11-10T12:34:11.808Z,8.48
2022-11-10T12:36:39.538Z,11.63
2022-11-10T12:39:17.322Z,9.10
2022-11-10T12:41:49.775Z,8.80
2022-11-10T12:44:28.813Z,8.68
2022-11-10T12:46:59.916Z,7.20
2022-11-10T12:49:48.413Z,4.65
2022-11-10T12:52:35.198Z,6.03
2022-11-10T12:55:02.228Z,4.95
2022-11-10T12:57:31.481Z,10.02
2022-11-10T13:00:07.090Z,4.72
2022-11-10T13:02:42.490Z,7.90
2022-11-10T13:05:15.215Z,8.55
2022-11-10T13:07:48.434Z,8.73
2022-11-10T13:10:18.357Z,8.07
2022-11-10T13:13:13.111Z,7.15
2022-11-10T13:15:39.744Z,6.18
2022-11-10T13:18:09.828Z,7.25
2022-11-10T13:20:39.272Z,8.77
2022-11-10T13:23:31.560Z,8.63
2022-11-10T13:26:00.225Z,6.13
2022-11-10T13:28:57.167Z,5.13
2022-11-10T13:31:29.052Z,5.63
2022-11-10T13:34:32.992Z,8.57
2022-11-10T13:36:59.775Z,7.72
2022-11-10T13:39:33.587Z,8.90
2022-11-10T13:42:09.410Z,7.20
2022-11-10T13:44:38.700Z,7.03
2022-11-10T13:47:08.404Z,10.07
2022-11-10T13:49:48.705Z,5.40
2022-11-10T13:52:20.148Z,8.23
2022-11-10T13:54:55.640Z,8.88
2022-11-10T13:57:32.013Z,5.22
2022-11-10T14:00:01.186Z,6.97
2022-11-10T14:02:46.153Z,8.35
2022-11-10T14:05:31.345Z,4.68
2022-11-10T14:08:09.976Z,6.22
2022-11-10T14:10:51.021Z,6.25
2022-11-10T14:13:23.596Z,6.90
2022-11-10T14:15:51.931Z,6.15
2022-11-10T14:18:25.141Z,5.57
2022-11-10T14:20:57.993Z,6.05
2022-11-10T14:23:26.421Z,7.78
2022-11-10T14:26:01.243Z,7.30
2022-11-10T14:28:37.668Z,5.88
2022-11-10T14:31:04.983Z,4.72
2022-11-10T14:33:31.722Z,6.97
2022-11-10T14:36:01.615Z,5.05
2022-11-10T14:38:37.552Z,8.65
2022-11-10T14:41:06.183Z,5.85
2022-11-10T14:43:38.279Z,5.00
2022-11-10T14:46:07.503Z,6.43
2022-11-10T14:48:36.862Z,6.40
2022-11-10T14:51:24.483Z,7.15
2022-11-10T14:53:54.261Z,8.27
2022-11-10T14:56:28.629Z,7.85
2022-11-10T14:58:59.283Z,7.75
2022-11-10T15:01:34.745Z,7.53
2022-11-10T15:04:07.400Z,8.07
2022-11-10T15:06:35.110Z,9.25
2022-11-10T15:09:16.567Z,10.15
2022-11-10T15:12:02.688Z,8.65
2022-11-10T15:14:36.638Z,10.90
2022-11-10T15:17:09.117Z,6.82
2022-11-10T15:19:36.872Z,6.43
2022-11-10T15:22:29.772Z,7.20
2022-11-10T15:24:59.280Z,7.00
2022-11-10T15:27:30.991Z,9.25
2022-11-10T15:30:00.916Z,7.13
2022-11-10T15:32:40.734Z,11.90
2022-11-10T15:35:22.253Z,10.00
2022-11-10T15:38:19.632Z,10.10
2022-11-10T15:40:50.284Z,8.93
2022-11-10T15:43:20.328Z,12.25
2022-11-10T15:45:52.296Z,7.93
2022-11-10T15:48:20.087Z,12.30
2022-11-10T15:50:50.548Z,8.30
2022-11-10T15:53:22.381Z,8.07
2022-11-10T15:55:49.585Z,7.47
2022-11-10T15:58:22.000Z,9.73
2022-11-10T16:00:49.549Z,10.32
2022-11-10T16:03:21.379Z,10.00
2022-11-10T16:05:48.648Z,10.93
2022-11-10T16:08:16.396Z,8.77
2022-11-10T16:10:45.932Z,11.82
2022-11-10T16:13:16.085Z,13.30
2022-11-10T16:15:43.497Z,8.75
2022-11-10T16:18:25.250Z,8.43
2022-11-10T16:20:53.613Z,11.13
2022-11-10T16:23:20.732Z,9.73
2022-11-10T16:25:50.286Z,9.80
2022-11-10T16:28:31.048Z,14.80
2022-11-10T16:30:58.623Z,11.50
2022-11-10T16:33:27.985Z,12.70
2022-11-10T16:35:55.652Z,8.75
2022-11-10T16:38:27.485Z,8.00
2022-11-10T16:40:57.247Z,9.25
2022-11-10T16:43:24.533Z,12.10
2022-11-10T16:45:53.909Z,9.15
2022-11-10T16:48:23.584Z,9.82
2022-11-10T16:50:57.451Z,11.02
2022-11-10T16:53:29.328Z,10.18
2022-11-10T16:55:56.580Z,12.15
2022-11-10T16:58:28.596Z,12.57
2022-11-10T17:00:59.424Z,13.38
2022-11-10T17:03:42.769Z,11.35
2022-11-10T17:06:13.718Z,14.07
2022-11-10T17:08:41.521Z,12.70
2022-11-10T17:11:09.402Z,11.32
2022-11-10T17:13:40.656Z,14.93
2022-11-10T17:16:27.411Z,12.68
2022-11-10T17:18:56.547Z,14.80
2022-11-10T17:21:28.540Z,16.70
2022-11-10T17:23:58.498Z,21.20
2022-11-10T17:26:25.753Z,15.30
2022-11-10T17:28:52.409Z,18.33
2022-11-10T17:31:19.028Z,15.63
2022-11-10T17:33:45.775Z,18.38
2022-11-10T17:36:17.586Z,18.17
2022-11-10T17:38:45.549Z,15.50
2022-11-10T17:41:17.610Z,15.57
2022-11-10T17:43:46.187Z,16.33
2022-11-10T17:46:13.570Z,16.77
2022-11-10T17:48:40.363Z,17.30
2022-11-10T17:51:18.427Z,16.88
2022-11-10T17:53:45.280Z,17.52
2022-11-10T17:56:13.177Z,16.55
2022-11-10T17:58:39.928Z,19.67
2022-11-10T18:01:19.897Z,18.27
2022-11-10T18:03:46.788Z,18.75
2022-11-10T18:06:17.735Z,21.00
2022-11-10T18:08:44.587Z,17.05
2022-11-10T18:11:13.098Z,18.02
2022-11-10T18:13:41.869Z,16.65
2022-11-10T18:16:09.966Z,19.80
2022-11-10T18:18:38.818Z,17.55
2022-11-10T18:21:06.372Z,20.52
2022-11-10T18:23:33.376Z,15.85
2022-11-10T18:26:08.611Z,17.85
2022-11-10T18:28:39.125Z,18.30
2022-11-10T18:31:10.527Z,17.45
2022-11-10T18:33:38.297Z,19.15
2022-11-10T18:36:06.028Z,18.42
2022-11-10T18:38:32.877Z,20.70
2022-11-10T18:41:24.227Z,15.73
2022-11-10T18:43:51.010Z,15.50
2022-11-10T18:46:17.744Z,18.52
2022-11-10T18:48:47.961Z,19.73
2022-11-10T18:51:16.377Z,19.67
2022-11-10T18:53:44.393Z,20.63
2022-11-10T18:56:11.031Z,18.05
2022-11-10T18:58:37.640Z,18.27
2022-11-10T19:01:06.315Z,19.88
2022-11-10T19:03:34.356Z,24.10
2022-11-10T19:06:01.061Z,18.58
2022-11-10T19:08:28.351Z,19.80
2022-11-10T19:10:56.228Z,23.10
2022-11-10T19:13:23.947Z,20.60
2022-11-10T19:15:50.933Z,22.98
2022-11-10T19:18:17.528Z,26.92
2022-11-10T19:20:44.197Z,30.67
2022-11-10T19:23:10.793Z,28.98
2022-11-10T19:25:37.499Z,27.23
2022-11-10T19:28:05.308Z,25.77
2022-11-10T19:30:32.034Z,21.80
2022-11-10T19:32:58.991Z,23.58
2022-11-10T19:35:25.671Z,19.30
2022-11-10T19:37:54.161Z,22.40
2022-11-10T19:40:23.593Z,19.27
2022-11-10T19:42:50.638Z,21.98
2022-11-10T19:45:17.856Z,22.05
2022-11-10T19:47:44.449Z,20.63
2022-11-10T19:50:11.106Z,23.63
2022-11-10T19:52:37.721Z,20.05
2022-11-10T19:55:04.613Z,24.75
2022-11-10T19:57:31.237Z,20.00
2022-11-10T19:59:57.841Z,23.67
2022-11-10T20:02:24.604Z,21.05
2022-11-10T20:05:09.662Z,21.58
2022-11-10T20:07:54.627Z,25.85
2022-11-10T20:10:22.927Z,22.10
2022-11-10T20:12:50.058Z,24.02
2022-11-10T20:15:16.852Z,25.95
2022-11-10T20:17:44.051Z,23.80
2022-11-10T20:20:10.821Z,24.30
2022-11-10T20:22:37.476Z,29.98
2022-11-10T20:25:04.447Z,28.15
2022-11-10T20:27:31.186Z,26.75
2022-11-10T20:29:59.290Z,22.85
2022-11-10T20:32:26.990Z,28.00
2022-11-10T20:34:53.980Z,33.72
2022-11-10T20:37:20.653Z,41.80
2022-11-10T20:39:47.479Z,29.85
2022-11-10T20:42:14.339Z,27.67
2022-11-10T20:44:41.011Z,24.23
2022-11-10T20:47:07.660Z,29.48
2022-11-10T20:49:34.301Z,23.52
2022-11-10T20:52:03.288Z,26.60
2022-11-10T20:54:30.384Z,25.17
2022-11-10T21:05:16.641Z,27.52
2022-11-10T21:07:43.425Z,21.67
2022-11-10T21:10:10.012Z,26.67
2022-11-10T21:12:51.923Z,22.65
2022-11-10T21:15:20.021Z,22.80
2022-11-10T21:17:47.146Z,21.10
2022-11-10T21:20:14.085Z,23.15
2022-11-10T21:22:40.748Z,22.75
2022-11-10T21:25:07.987Z,24.17
2022-11-10T21:27:35.765Z,23.73
2022-11-10T21:30:02.496Z,19.98
2022-11-10T21:32:30.286Z,21.05
2022-11-10T21:34:56.852Z,21.25
2022-11-10T21:37:23.801Z,22.65
2022-11-10T21:39:50.428Z,19.75
2022-11-10T21:42:20.873Z,20.85
2022-11-10T21:44:47.638Z,21.63
2022-11-10T21:47:14.551Z,20.25
2022-11-10T21:49:41.208Z,20.27
2022-11-10T21:52:07.850Z,24.17
2022-11-10T21:54:34.442Z,17.58
2022-11-10T21:57:01.032Z,21.35
2022-11-10T21:59:27.853Z,22.40
2022-11-10T22:01:54.492Z,23.83
2022-11-10T22:04:21.237Z,22.52
2022-11-10T22:07:11.035Z,21.02
2022-11-10T22:09:56.220Z,22.17
2022-11-10T22:12:42.324Z,22.58
2022-11-10T22:15:32.471Z,22.35
2022-11-10T22:18:20.743Z,22.27
2022-11-10T22:20:47.421Z,22.77
2022-11-10T22:23:13.984Z,21.85
2022-11-10T22:25:41.980Z,23.73
2022-11-10T22:28:11.231Z,24.60
2022-11-10T22:30:38.022Z,21.05
2022-11-10T22:33:25.234Z,23.98
2022-11-10T22:35:57.430Z,23.52
2022-11-10T22:38:25.499Z,23.50
2022-11-10T22:41:10.811Z,25.02
2022-11-10T22:43:55.908Z,23.58
2022-11-10T22:46:22.521Z,21.42
2022-11-10T22:48:50.167Z,24.83
2022-11-10T22:51:17.015Z,25.23
2022-11-10T22:53:45.888Z,22.08
2022-11-10T22:56:19.239Z,22.42
2022-11-10T22:58:46.837Z,24.23
2022-11-10T23:01:13.611Z,25.13
2022-11-10T23:03:40.910Z,22.38
2022-11-10T23:06:08.481Z,20.75
2022-11-10T23:08:36.302Z,25.45
2022-11-10T23:11:05.950Z,29.17
2022-11-10T23:13:35.994Z,27.40
2022-11-10T23:16:09.485Z,30.75
2022-11-10T23:18:37.431Z,26.95
2022-11-10T23:21:10.182Z,27.70
2022-11-10T23:23:38.711Z,31.55
2022-11-10T23:26:07.320Z,29.67
2022-11-10T23:28:36.052Z,34.88
2022-11-10T23:31:05.572Z,32.33
2022-11-10T23:33:33.544Z,36.72
2022-11-10T23:36:05.000Z,34.28
2022-11-10T23:38:37.522Z,37.60
2022-11-10T23:41:06.619Z,35.45
2022-11-10T23:43:34.831Z,33.67
2022-11-10T23:46:09.047Z,31.58
2022-11-10T23:48:37.529Z,34.50
2022-11-10T23:51:06.125Z,33.22
2022-11-10T23:53:33.199Z,38.05
2022-11-10T23:56:09.084Z,32.42
2022-11-10T23:58:36.919Z,29.83
